Weather at District One Hospital Heliport

Public forecast

Using degrees Fahrenheit for public forecast. Weather courtesy of forecast.io.

Closest aviation weather report (METAR) to District One Hospital Heliport

Closest report is Faribault Municipal Airport-Liz Wall Strohfus Field, 3.3 nm (6.1 km) NW. Retrieved 2021/07/24 23:35 UTC (16 minutes ago):

KFBL 242335Z AUTO 29005KT 10SM CLR 29/13 A2993 RMK AO2

Closest aviation forecast (TAF) to District One Hospital Heliport

Forecast is more than 12 hours old.

Closest forecast is Airlake Airport, 20.4 nm (37.7 km) N. Retrieved 2018/02/05 00:21 UTC (3 years ago):

TAF KLVN 052320Z 0600/0624 27006KT P6SM FEW020 FM060200 31009KT P6SM FEW250 FM061700 22004KT P6SM FEW200 FM062200 22004KT P6SM OVC100 AMD NOT SKED